createdAt,value
2019-03-03T00:00:06.797Z,5.37
2019-03-03T00:01:24.225Z,6.17
2019-03-03T00:02:31.271Z,5.83
2019-03-03T00:03:38.073Z,6.17
2019-03-03T00:04:45.029Z,6.07
2019-03-03T00:05:52.127Z,6.43
2019-03-03T00:06:58.815Z,5.47
2019-03-03T00:08:05.649Z,6.13
2019-03-03T00:09:12.309Z,7.43
2019-03-03T00:10:19.760Z,5.60
2019-03-03T00:11:26.505Z,5.53
2019-03-03T00:12:33.668Z,6.07
2019-03-03T00:13:41.171Z,6.10
2019-03-03T00:14:48.601Z,5.87
2019-03-03T00:15:56.106Z,6.00
2019-03-03T00:17:02.870Z,5.40
2019-03-03T00:18:10.509Z,5.40
2019-03-03T00:19:17.187Z,4.73
2019-03-03T00:20:23.865Z,5.73
2019-03-03T00:21:30.765Z,5.20
2019-03-03T00:22:37.426Z,4.60
2019-03-03T00:23:44.205Z,4.50
2019-03-03T00:24:51.097Z,5.40
2019-03-03T00:25:58.343Z,5.17
2019-03-03T00:27:05.248Z,4.43
2019-03-03T00:28:12.248Z,4.03
2019-03-03T00:29:19.648Z,4.07
2019-03-03T00:30:26.517Z,3.70
2019-03-03T00:31:39.546Z,3.73
2019-03-03T00:32:46.954Z,4.90
2019-03-03T00:33:53.690Z,5.13
2019-03-03T00:35:00.931Z,4.23
2019-03-03T00:36:07.664Z,4.40
2019-03-03T00:37:25.730Z,3.90
2019-03-03T00:39:09.967Z,4.60
2019-03-03T00:40:41.360Z,3.77
2019-03-03T00:42:05.942Z,4.13
2019-03-03T00:43:39.104Z,4.33
2019-03-03T00:44:55.226Z,4.90
2019-03-03T00:46:19.649Z,3.80
2019-03-03T00:47:44.194Z,4.00
2019-03-03T00:49:04.210Z,3.70
2019-03-03T00:50:25.491Z,3.57
2019-03-03T00:51:37.771Z,3.70
2019-03-03T00:53:02.099Z,3.70
2019-03-03T00:54:29.841Z,4.17
2019-03-03T00:55:47.903Z,3.50
2019-03-03T00:57:16.214Z,3.50
2019-03-03T00:58:48.456Z,3.27
2019-03-03T01:00:05.268Z,3.33
2019-03-03T01:01:34.549Z,2.50
2019-03-03T01:02:46.078Z,3.37
2019-03-03T01:04:00.952Z,3.57
2019-03-03T01:05:43.118Z,3.30
2019-03-03T01:07:11.598Z,3.30
2019-03-03T01:08:40.285Z,3.53
2019-03-03T01:10:12.173Z,3.10
2019-03-03T01:11:44.622Z,3.60
2019-03-03T01:12:56.429Z,2.90
2019-03-03T01:14:37.120Z,3.43
2019-03-03T01:15:57.836Z,3.80
2019-03-03T01:17:30.237Z,4.77
2019-03-03T01:18:55.829Z,4.27
2019-03-03T01:20:20.441Z,3.87
2019-03-03T01:21:46.037Z,3.97
2019-03-03T01:23:11.827Z,2.80
2019-03-03T01:24:36.430Z,3.63
2019-03-03T01:25:43.114Z,3.70
2019-03-03T01:26:50.282Z,3.93
2019-03-03T01:27:57.019Z,3.47
2019-03-03T01:29:06.339Z,4.07
2019-03-03T01:30:14.429Z,3.70
2019-03-03T01:31:21.497Z,3.53
2019-03-03T01:32:28.555Z,4.50
2019-03-03T01:33:35.733Z,3.87
2019-03-03T01:34:42.458Z,4.03
2019-03-03T01:35:49.395Z,4.70
2019-03-03T01:36:56.605Z,3.70
2019-03-03T01:38:03.719Z,5.03
2019-03-03T01:39:10.826Z,4.20
2019-03-03T01:40:17.850Z,3.70
2019-03-03T01:41:24.866Z,5.37
2019-03-03T01:42:31.577Z,5.10
2019-03-03T01:43:38.459Z,4.33
2019-03-03T01:44:45.187Z,4.37
2019-03-03T01:45:51.843Z,4.40
2019-03-03T01:46:58.879Z,4.60
2019-03-03T01:48:05.883Z,4.47
2019-03-03T01:49:12.600Z,4.33
2019-03-03T01:50:19.312Z,4.50
2019-03-03T01:51:26.338Z,4.20
2019-03-03T01:52:33.058Z,4.77
2019-03-03T01:53:40.194Z,4.83
2019-03-03T01:54:47.015Z,4.50
2019-03-03T01:55:53.991Z,5.20
2019-03-03T01:57:01.388Z,4.30
2019-03-03T01:58:08.451Z,4.00
2019-03-03T01:59:15.150Z,5.20
2019-03-03T02:00:25.794Z,4.87
2019-03-03T02:01:32.549Z,3.80
2019-03-03T02:02:39.224Z,3.90
2019-03-03T02:03:45.914Z,4.43
2019-03-03T02:04:52.851Z,3.97
2019-03-03T02:05:59.839Z,4.47
2019-03-03T02:07:06.660Z,4.43
2019-03-03T02:08:13.757Z,3.63
2019-03-03T02:09:20.471Z,4.63
2019-03-03T02:10:27.354Z,4.53
2019-03-03T02:11:34.946Z,4.20
2019-03-03T02:12:42.325Z,4.73
2019-03-03T02:13:49.318Z,4.50
2019-03-03T02:14:55.949Z,3.50
2019-03-03T02:16:04.667Z,4.00
2019-03-03T02:17:12.108Z,3.30
2019-03-03T02:18:30.817Z,5.10
2019-03-03T02:19:38.229Z,3.50
2019-03-03T02:20:44.965Z,3.70
2019-03-03T02:21:52.153Z,4.47
2019-03-03T02:22:59.133Z,3.90
2019-03-03T02:24:06.303Z,5.60
2019-03-03T02:25:13.012Z,4.27
2019-03-03T02:26:20.080Z,4.00
2019-03-03T02:27:26.818Z,4.17
2019-03-03T02:28:34.654Z,3.93
2019-03-03T02:29:41.639Z,3.57
2019-03-03T02:30:48.397Z,4.17
2019-03-03T02:31:55.506Z,3.90
2019-03-03T02:33:02.195Z,3.17
2019-03-03T02:34:08.890Z,3.60
2019-03-03T02:35:16.495Z,3.33
2019-03-03T02:36:23.202Z,3.40
2019-03-03T02:37:29.886Z,4.17
2019-03-03T02:38:36.868Z,3.90
2019-03-03T02:39:43.576Z,4.60
2019-03-03T02:40:50.699Z,3.37
2019-03-03T02:41:57.653Z,3.70
2019-03-03T02:43:04.330Z,3.97
2019-03-03T02:44:11.535Z,3.10
2019-03-03T02:45:19.845Z,5.20
2019-03-03T02:46:26.889Z,3.63
2019-03-03T02:47:33.942Z,3.27
2019-03-03T02:48:40.664Z,3.53
2019-03-03T02:49:47.364Z,3.63
2019-03-03T02:50:54.085Z,3.67
2019-03-03T02:52:00.789Z,3.10
2019-03-03T02:53:07.937Z,3.23
2019-03-03T02:54:14.612Z,3.10
2019-03-03T02:55:21.268Z,3.67
2019-03-03T02:56:28.350Z,2.57
2019-03-03T02:57:35.052Z,3.53
2019-03-03T02:58:41.740Z,3.87
2019-03-03T02:59:48.550Z,3.47
2019-03-03T03:01:12.922Z,3.70
2019-03-03T03:02:37.396Z,2.60
2019-03-03T03:03:44.134Z,3.20
2019-03-03T03:04:50.923Z,4.00
2019-03-03T03:06:28.636Z,4.07
2019-03-03T03:07:46.272Z,3.20
2019-03-03T03:09:10.753Z,3.10
2019-03-03T03:10:33.729Z,3.90
2019-03-03T03:12:02.451Z,3.13
2019-03-03T03:13:37.361Z,2.93
2019-03-03T03:14:51.899Z,2.60
2019-03-03T03:16:13.615Z,3.23
2019-03-03T03:17:48.576Z,3.47
2019-03-03T03:19:03.810Z,4.00
2019-03-03T03:20:35.297Z,2.80
2019-03-03T03:22:03.873Z,3.67
2019-03-03T03:23:33.660Z,3.90
2019-03-03T03:24:48.853Z,4.27
2019-03-03T03:26:33.040Z,3.63
2019-03-03T03:28:01.754Z,3.13
2019-03-03T03:29:30.333Z,3.37
2019-03-03T03:31:08.205Z,2.97
2019-03-03T03:32:24.053Z,3.20
2019-03-03T03:33:51.327Z,4.17
2019-03-03T03:35:19.771Z,4.07
2019-03-03T03:36:45.546Z,4.00
2019-03-03T03:37:59.262Z,4.20
2019-03-03T03:39:29.290Z,3.20
2019-03-03T03:40:54.003Z,4.40
2019-03-03T03:42:23.735Z,3.50
2019-03-03T03:43:55.519Z,3.50
2019-03-03T03:45:19.697Z,3.60
2019-03-03T03:46:38.237Z,3.93
2019-03-03T03:48:02.654Z,3.37
2019-03-03T03:49:22.682Z,3.17
2019-03-03T03:50:57.109Z,3.47
2019-03-03T03:52:32.272Z,3.10
2019-03-03T03:53:49.494Z,3.50
2019-03-03T03:55:18.394Z,3.80
2019-03-03T03:57:01.107Z,3.77
2019-03-03T03:58:25.924Z,4.40
2019-03-03T03:59:47.706Z,4.40
2019-03-03T04:01:11.990Z,3.53
2019-03-03T04:02:30.612Z,3.90
2019-03-03T04:04:14.721Z,4.40
2019-03-03T04:05:27.854Z,4.70
2019-03-03T04:06:42.360Z,3.87
2019-03-03T04:08:12.279Z,4.10
2019-03-03T04:09:41.574Z,3.93
2019-03-03T04:11:07.396Z,3.47
2019-03-03T04:12:42.618Z,4.30
2019-03-03T04:14:07.447Z,4.00
2019-03-03T04:15:39.031Z,4.37
2019-03-03T04:17:13.873Z,4.03
2019-03-03T04:18:25.617Z,4.60
2019-03-03T04:19:39.331Z,6.23
2019-03-03T04:20:57.076Z,4.10
2019-03-03T04:22:11.138Z,4.23
2019-03-03T04:23:39.740Z,4.40
2019-03-03T04:24:57.662Z,3.93
2019-03-03T04:26:22.151Z,4.40
2019-03-03T04:28:06.213Z,4.43
2019-03-03T04:29:31.749Z,3.87
2019-03-03T04:30:44.930Z,5.73
2019-03-03T04:32:09.804Z,5.17
2019-03-03T04:33:44.538Z,4.50
2019-03-03T04:35:10.415Z,5.17
2019-03-03T04:36:31.909Z,4.47
2019-03-03T04:37:49.557Z,5.20
2019-03-03T04:39:07.087Z,4.90
2019-03-03T04:40:21.948Z,4.60
2019-03-03T04:41:36.860Z,4.60
2019-03-03T04:43:04.717Z,4.17
2019-03-03T04:44:20.119Z,5.33
2019-03-03T04:45:51.960Z,4.10
2019-03-03T04:47:20.656Z,5.17
2019-03-03T04:48:35.384Z,4.40
2019-03-03T04:50:10.629Z,4.47
2019-03-03T04:51:36.213Z,5.00
2019-03-03T04:52:58.638Z,5.17
2019-03-03T04:54:33.309Z,5.67
2019-03-03T04:55:48.860Z,5.53
2019-03-03T04:57:23.824Z,6.33
2019-03-03T04:58:41.747Z,4.90
2019-03-03T05:00:13.116Z,5.27
2019-03-03T05:01:42.043Z,7.20
2019-03-03T05:02:57.034Z,5.33
2019-03-03T05:04:37.917Z,5.30
2019-03-03T05:06:06.373Z,6.90
2019-03-03T05:07:46.821Z,7.00
2019-03-03T05:09:27.736Z,5.70
2019-03-03T05:10:46.107Z,6.30
2019-03-03T05:12:43.422Z,5.67
2019-03-03T05:13:55.057Z,5.60
2019-03-03T05:15:26.767Z,6.90
2019-03-03T05:16:46.236Z,5.33
2019-03-03T05:18:01.012Z,5.80
2019-03-03T05:19:12.000Z,6.27
2019-03-03T05:20:19.056Z,5.70
2019-03-03T05:21:25.730Z,5.93
2019-03-03T05:22:32.398Z,6.83
2019-03-03T05:23:39.452Z,5.90
2019-03-03T05:24:46.151Z,6.40
2019-03-03T05:25:53.525Z,5.87
2019-03-03T05:27:00.359Z,6.80
2019-03-03T05:28:07.368Z,6.03
2019-03-03T05:29:14.345Z,6.50
2019-03-03T05:30:21.037Z,6.60
2019-03-03T05:31:29.353Z,6.97
2019-03-03T05:32:36.230Z,6.13
2019-03-03T05:33:43.251Z,7.40
2019-03-03T05:34:49.957Z,6.20
2019-03-03T05:35:56.716Z,6.93
2019-03-03T05:37:03.403Z,7.10
2019-03-03T05:38:10.264Z,6.50
2019-03-03T05:39:17.770Z,6.20
2019-03-03T05:40:24.450Z,5.70
2019-03-03T05:41:31.522Z,8.00
2019-03-03T05:42:38.578Z,6.07
2019-03-03T05:43:45.672Z,7.10
2019-03-03T05:44:52.348Z,6.20
2019-03-03T05:45:58.995Z,5.97
2019-03-03T05:47:06.037Z,6.23
2019-03-03T05:48:13.060Z,6.80
2019-03-03T05:49:20.111Z,7.00
2019-03-03T05:50:26.790Z,6.80
2019-03-03T05:51:33.910Z,6.20
2019-03-03T05:52:40.633Z,6.20
2019-03-03T05:53:47.755Z,6.50
2019-03-03T05:54:54.804Z,6.90
2019-03-03T05:56:01.485Z,6.50
2019-03-03T05:57:08.574Z,7.33
2019-03-03T05:58:15.267Z,6.30
2019-03-03T05:59:22.258Z,5.93
2019-03-03T06:00:28.953Z,7.07
2019-03-03T06:01:35.731Z,6.80
2019-03-03T06:02:42.796Z,6.30
2019-03-03T06:03:49.474Z,6.70
2019-03-03T06:04:56.579Z,6.27
2019-03-03T06:06:03.598Z,6.93
2019-03-03T06:07:10.336Z,7.40
2019-03-03T06:08:17.401Z,6.47
2019-03-03T06:09:24.393Z,6.73
2019-03-03T06:10:31.146Z,7.47
2019-03-03T06:11:38.166Z,7.90
2019-03-03T06:12:44.877Z,6.10
2019-03-03T06:13:51.839Z,7.83
2019-03-03T06:14:58.631Z,7.17
2019-03-03T06:16:05.386Z,8.17
2019-03-03T06:17:12.345Z,7.40
2019-03-03T06:18:19.373Z,7.57
2019-03-03T06:19:26.047Z,8.27
2019-03-03T06:20:33.073Z,7.50
2019-03-03T06:21:39.778Z,6.37
2019-03-03T06:22:46.943Z,7.10
2019-03-03T06:23:53.640Z,7.07
2019-03-03T06:25:00.706Z,7.60
2019-03-03T06:26:07.738Z,7.93
2019-03-03T06:27:14.716Z,6.97
2019-03-03T06:28:21.563Z,7.53
2019-03-03T06:29:28.533Z,6.83
2019-03-03T06:30:35.210Z,7.73
2019-03-03T06:31:41.973Z,7.50
2019-03-03T06:32:49.329Z,7.20
2019-03-03T06:33:56.082Z,8.30
2019-03-03T06:35:03.042Z,8.40
2019-03-03T06:36:09.698Z,7.30
2019-03-03T06:37:16.380Z,7.83
2019-03-03T06:38:23.487Z,7.30
2019-03-03T06:39:30.185Z,8.53
2019-03-03T06:40:37.224Z,8.43
2019-03-03T06:41:43.866Z,8.00
2019-03-03T06:42:50.552Z,8.07
2019-03-03T06:43:57.589Z,9.70
2019-03-03T06:45:04.803Z,8.30
2019-03-03T06:46:11.522Z,8.20
2019-03-03T06:47:18.171Z,8.60
2019-03-03T06:48:25.219Z,8.27
2019-03-03T06:49:31.918Z,8.70
2019-03-03T06:50:39.011Z,8.53
2019-03-03T06:51:45.903Z,7.70
2019-03-03T06:52:52.569Z,8.83
2019-03-03T06:53:59.805Z,8.50
2019-03-03T06:55:07.231Z,8.30
2019-03-03T06:56:14.116Z,7.23
2019-03-03T06:57:20.859Z,7.37
2019-03-03T06:58:27.810Z,8.53
2019-03-03T06:59:34.502Z,7.43
2019-03-03T07:00:41.556Z,7.53
2019-03-03T07:01:48.756Z,7.30
2019-03-03T07:02:55.532Z,7.57
2019-03-03T07:04:02.184Z,7.30
2019-03-03T07:05:10.711Z,8.00
2019-03-03T07:06:17.795Z,8.23
2019-03-03T07:07:24.818Z,7.00
2019-03-03T07:08:31.520Z,7.43
2019-03-03T07:09:38.369Z,6.73
2019-03-03T07:10:45.342Z,6.80
2019-03-03T07:11:52.053Z,8.00
2019-03-03T07:12:59.121Z,7.50
2019-03-03T07:14:05.837Z,7.87
2019-03-03T07:15:15.677Z,7.57
2019-03-03T07:16:22.347Z,7.50
2019-03-03T07:17:29.029Z,6.67
2019-03-03T07:18:36.021Z,8.13
2019-03-03T07:19:43.101Z,7.10
2019-03-03T07:20:50.134Z,7.30
2019-03-03T07:21:57.129Z,7.50
2019-03-03T07:23:03.857Z,7.70
2019-03-03T07:24:10.914Z,7.83
2019-03-03T07:25:17.625Z,6.90
2019-03-03T07:26:24.505Z,9.10
2019-03-03T07:27:31.267Z,7.87
2019-03-03T07:28:37.948Z,9.17
2019-03-03T07:29:44.624Z,7.40
2019-03-03T07:30:51.646Z,9.17
2019-03-03T07:31:58.706Z,7.63
2019-03-03T07:33:16.458Z,8.50
2019-03-03T07:34:23.566Z,9.23
2019-03-03T07:35:30.570Z,8.40
2019-03-03T07:36:37.567Z,8.23
2019-03-03T07:37:44.450Z,8.80
2019-03-03T07:38:51.074Z,7.27
2019-03-03T07:39:58.546Z,9.97
2019-03-03T07:41:05.606Z,10.10
2019-03-03T07:42:12.480Z,8.40
2019-03-03T07:43:19.232Z,9.10
2019-03-03T07:44:27.055Z,10.00
2019-03-03T07:45:33.784Z,8.80
2019-03-03T07:46:40.476Z,9.40
2019-03-03T07:47:47.559Z,8.90
2019-03-03T07:48:54.310Z,9.30
2019-03-03T07:50:01.373Z,9.20
2019-03-03T07:51:08.069Z,9.50
2019-03-03T07:52:14.848Z,9.20
2019-03-03T07:53:21.621Z,9.07
2019-03-03T07:54:28.457Z,9.20
2019-03-03T07:55:35.451Z,8.63
2019-03-03T07:56:42.496Z,8.63
2019-03-03T07:57:49.606Z,8.17
2019-03-03T07:58:56.710Z,8.43
2019-03-03T08:00:03.895Z,9.17
2019-03-03T08:01:10.625Z,9.60
2019-03-03T08:02:17.731Z,8.93
2019-03-03T08:03:25.086Z,7.73
2019-03-03T08:04:31.766Z,8.70
2019-03-03T08:05:38.429Z,9.70
2019-03-03T08:06:45.477Z,9.60
2019-03-03T08:07:52.495Z,8.33
2019-03-03T08:08:59.336Z,8.00
2019-03-03T08:10:06.850Z,8.97
2019-03-03T08:11:13.918Z,9.00
2019-03-03T08:12:21.593Z,9.00
2019-03-03T08:13:28.320Z,7.10
2019-03-03T08:14:35.383Z,8.50
2019-03-03T08:15:42.404Z,8.77
2019-03-03T08:16:52.493Z,8.27
2019-03-03T08:17:59.605Z,9.27
2019-03-03T08:19:06.653Z,8.90
2019-03-03T08:20:13.465Z,8.63
2019-03-03T08:21:20.665Z,8.80
2019-03-03T08:22:27.626Z,8.00
2019-03-03T08:23:34.879Z,9.40
2019-03-03T08:24:42.084Z,7.50
2019-03-03T08:25:49.020Z,8.57
2019-03-03T08:26:55.781Z,9.17
2019-03-03T08:28:02.493Z,8.83
2019-03-03T08:29:09.201Z,8.60
2019-03-03T08:30:16.594Z,8.80
2019-03-03T08:31:24.420Z,8.00
2019-03-03T08:32:31.492Z,8.60
2019-03-03T08:33:38.140Z,9.20
2019-03-03T08:34:44.835Z,7.80
2019-03-03T08:35:51.677Z,8.80
2019-03-03T08:37:00.275Z,8.03
2019-03-03T08:38:07.426Z,7.80
2019-03-03T08:39:14.137Z,7.00
2019-03-03T08:40:20.874Z,7.83
2019-03-03T08:41:27.784Z,7.27
2019-03-03T08:42:59.658Z,7.83
2019-03-03T08:44:40.082Z,8.17
2019-03-03T08:46:21.167Z,7.10
2019-03-03T08:47:41.808Z,6.43
2019-03-03T08:48:53.577Z,6.40
2019-03-03T08:50:13.674Z,7.73
2019-03-03T08:51:35.655Z,7.33
2019-03-03T08:52:53.513Z,8.10
2019-03-03T08:54:17.744Z,7.53
2019-03-03T08:55:55.746Z,7.63
2019-03-03T08:57:13.431Z,8.70
2019-03-03T08:58:48.449Z,8.30
2019-03-03T09:00:10.297Z,8.10
2019-03-03T09:01:41.947Z,7.83
2019-03-03T09:03:15.046Z,8.00
2019-03-03T09:04:41.096Z,8.03
2019-03-03T09:06:06.562Z,9.00
2019-03-03T09:07:21.756Z,9.03
2019-03-03T09:08:40.917Z,8.90
2019-03-03T09:10:06.374Z,8.40
2019-03-03T09:11:44.833Z,9.93
2019-03-03T09:13:09.795Z,8.00
2019-03-03T09:14:33.685Z,9.07
2019-03-03T09:15:59.104Z,9.63
2019-03-03T09:17:28.009Z,9.20
2019-03-03T09:18:48.550Z,10.10
2019-03-03T09:20:27.136Z,9.60
2019-03-03T09:21:51.552Z,9.93
2019-03-03T09:23:16.081Z,8.53
2019-03-03T09:24:41.988Z,9.67
2019-03-03T09:26:06.591Z,10.20
2019-03-03T09:27:34.953Z,8.60
2019-03-03T09:29:13.275Z,8.90
2019-03-03T09:30:44.896Z,9.50
2019-03-03T09:32:25.728Z,10.63
2019-03-03T09:33:51.112Z,12.70
2019-03-03T09:35:34.890Z,9.73
2019-03-03T09:36:53.535Z,12.17
2019-03-03T09:38:17.792Z,11.37
2019-03-03T09:39:46.422Z,12.47
2019-03-03T09:41:03.205Z,14.63
2019-03-03T09:42:44.013Z,11.03
2019-03-03T09:44:12.997Z,10.10
2019-03-03T09:45:37.510Z,16.73
2019-03-03T09:47:12.047Z,20.33
2019-03-03T09:48:38.110Z,14.40
2019-03-03T09:50:03.080Z,16.03
2019-03-03T09:51:16.934Z,10.77
2019-03-03T09:52:42.149Z,11.67
2019-03-03T09:54:01.721Z,13.23
2019-03-03T09:55:27.756Z,11.80
2019-03-03T09:56:59.402Z,10.10
2019-03-03T09:58:23.512Z,8.93
2019-03-03T09:59:48.030Z,10.50
2019-03-03T10:01:06.414Z,8.70
2019-03-03T10:02:22.229Z,10.03
2019-03-03T10:03:49.079Z,9.00
2019-03-03T10:05:21.921Z,9.70
2019-03-03T10:06:46.596Z,9.20
2019-03-03T10:08:18.004Z,9.13
2019-03-03T10:09:42.640Z,9.70
2019-03-03T10:11:07.626Z,10.33
2019-03-03T10:12:23.440Z,11.10
2019-03-03T10:13:46.230Z,9.00
2019-03-03T10:15:06.996Z,7.93
2019-03-03T10:16:42.068Z,8.07
2019-03-03T10:18:02.002Z,9.47
2019-03-03T10:19:23.769Z,8.03
2019-03-03T10:21:07.996Z,7.77
2019-03-03T10:22:32.042Z,7.73
2019-03-03T10:23:53.016Z,8.20
2019-03-03T10:25:17.819Z,7.70
2019-03-03T10:26:42.171Z,8.60
2019-03-03T10:28:10.923Z,7.20
2019-03-03T10:29:36.837Z,8.37
2019-03-03T10:30:58.904Z,7.17
2019-03-03T10:32:17.809Z,6.93
2019-03-03T10:33:42.811Z,6.60
2019-03-03T10:35:11.545Z,6.30
2019-03-03T10:36:52.653Z,7.10
2019-03-03T10:38:37.205Z,7.70
2019-03-03T10:40:21.106Z,7.70
2019-03-03T10:41:47.453Z,7.50
2019-03-03T10:43:19.268Z,7.20
2019-03-03T10:44:44.267Z,7.50
2019-03-03T10:46:19.063Z,7.67
2019-03-03T10:47:47.399Z,7.20
2019-03-03T10:49:14.629Z,7.70
2019-03-03T10:50:34.799Z,8.03
2019-03-03T10:52:00.716Z,6.60
2019-03-03T10:53:13.158Z,7.70
2019-03-03T10:54:41.509Z,8.47
2019-03-03T10:56:09.105Z,6.57
2019-03-03T10:57:33.935Z,6.13
2019-03-03T10:59:15.312Z,7.53
2019-03-03T11:00:50.093Z,8.57
2019-03-03T11:02:06.831Z,7.53
2019-03-03T11:03:44.585Z,7.90
2019-03-03T11:05:04.924Z,8.80
2019-03-03T11:06:29.451Z,8.07
2019-03-03T11:08:01.945Z,7.03
2019-03-03T11:09:33.828Z,8.30
2019-03-03T11:10:57.347Z,7.60
2019-03-03T11:12:18.942Z,7.00
2019-03-03T11:13:39.619Z,7.80
2019-03-03T11:15:21.210Z,8.10
2019-03-03T11:16:40.807Z,7.10
2019-03-03T11:18:09.782Z,6.73
2019-03-03T11:19:34.241Z,8.13
2019-03-03T11:21:06.139Z,6.60
2019-03-03T11:22:18.955Z,6.43
2019-03-03T11:23:45.109Z,6.53
2019-03-03T11:25:09.481Z,6.90
2019-03-03T11:26:53.621Z,6.33
2019-03-03T11:28:25.374Z,6.23
2019-03-03T11:29:54.614Z,6.30
2019-03-03T11:31:11.621Z,6.70
2019-03-03T11:32:27.464Z,5.30
2019-03-03T11:33:59.602Z,5.50
2019-03-03T11:35:28.911Z,5.90
2019-03-03T11:36:54.894Z,6.77
2019-03-03T11:38:10.368Z,5.87
2019-03-03T11:39:35.756Z,4.73
2019-03-03T11:40:56.409Z,6.13
2019-03-03T11:42:11.425Z,6.43
2019-03-03T11:43:49.540Z,5.73
2019-03-03T11:45:18.646Z,5.63
2019-03-03T11:46:47.571Z,6.00
2019-03-03T11:48:05.357Z,5.20
2019-03-03T11:49:30.092Z,6.10
2019-03-03T11:50:55.712Z,4.90
2019-03-03T11:52:22.101Z,4.97
2019-03-03T11:53:46.925Z,4.83
2019-03-03T11:55:12.415Z,5.33
2019-03-03T11:56:38.933Z,5.00
2019-03-03T11:57:52.489Z,4.97
2019-03-03T11:59:33.491Z,5.60
2019-03-03T12:01:04.798Z,4.97
2019-03-03T12:02:29.251Z,5.03
2019-03-03T12:03:54.899Z,5.43
2019-03-03T12:05:19.349Z,5.47
2019-03-03T12:06:57.263Z,4.87
2019-03-03T12:08:26.045Z,4.80
2019-03-03T12:09:48.998Z,5.00
2019-03-03T12:11:16.694Z,5.27
2019-03-03T12:12:48.290Z,5.60
2019-03-03T12:14:04.388Z,5.40
2019-03-03T12:15:26.473Z,5.30
2019-03-03T12:16:50.825Z,5.07
2019-03-03T12:18:22.428Z,5.27
2019-03-03T12:19:49.017Z,5.53
2019-03-03T12:21:04.813Z,5.20
2019-03-03T12:22:22.268Z,5.77
2019-03-03T12:23:41.081Z,5.40
2019-03-03T12:25:18.835Z,5.33
2019-03-03T12:26:37.605Z,5.90
2019-03-03T12:28:02.096Z,4.63
2019-03-03T12:29:31.659Z,5.67
2019-03-03T12:30:45.711Z,5.80
2019-03-03T12:32:17.228Z,6.20
2019-03-03T12:33:32.821Z,5.20
2019-03-03T12:35:01.788Z,6.13
2019-03-03T12:36:28.326Z,6.10
2019-03-03T12:37:40.417Z,5.20
2019-03-03T12:38:56.220Z,6.00
2019-03-03T12:40:20.529Z,5.97
2019-03-03T12:41:40.594Z,5.80
2019-03-03T12:43:06.236Z,5.57
2019-03-03T12:44:27.524Z,5.60
2019-03-03T12:46:03.562Z,6.33
2019-03-03T12:47:41.305Z,5.53
2019-03-03T12:49:08.110Z,5.20
2019-03-03T12:50:31.302Z,5.53
2019-03-03T12:52:00.159Z,6.47
2019-03-03T12:53:25.496Z,5.90
2019-03-03T12:54:50.688Z,5.73
2019-03-03T12:56:19.424Z,5.77
2019-03-03T12:57:43.594Z,5.97
2019-03-03T12:59:07.550Z,5.90
2019-03-03T13:00:26.235Z,5.90
2019-03-03T13:02:07.268Z,6.13
2019-03-03T13:03:42.063Z,5.70
2019-03-03T13:05:07.574Z,6.60
2019-03-03T13:06:39.067Z,7.23
2019-03-03T13:08:13.844Z,6.70
2019-03-03T13:09:46.339Z,5.97
2019-03-03T13:11:27.548Z,6.10
2019-03-03T13:12:56.111Z,7.20
2019-03-03T13:14:19.777Z,6.83
2019-03-03T13:15:57.734Z,6.20
2019-03-03T13:17:22.793Z,6.50
2019-03-03T13:18:51.694Z,6.10
2019-03-03T13:20:17.725Z,5.60
2019-03-03T13:21:34.229Z,6.07
2019-03-03T13:23:05.769Z,6.33
2019-03-03T13:24:22.650Z,5.53
2019-03-03T13:25:47.769Z,5.73
2019-03-03T13:27:16.374Z,6.77
2019-03-03T13:28:32.302Z,6.33
2019-03-03T13:30:04.815Z,6.03
2019-03-03T13:31:18.329Z,5.60
2019-03-03T13:32:42.434Z,5.43
2019-03-03T13:33:59.668Z,5.47
2019-03-03T13:35:34.979Z,6.60
2019-03-03T13:37:03.950Z,7.00
2019-03-03T13:38:26.611Z,5.43
2019-03-03T13:39:42.956Z,5.93
2019-03-03T13:40:59.304Z,5.27
2019-03-03T13:42:28.133Z,5.93
2019-03-03T13:43:34.875Z,6.17
2019-03-03T13:44:41.564Z,5.80
2019-03-03T13:45:48.492Z,5.97
2019-03-03T13:46:55.181Z,5.70
2019-03-03T13:48:02.269Z,5.77
2019-03-03T13:49:09.142Z,5.93
2019-03-03T13:50:18.130Z,5.83
2019-03-03T13:51:25.126Z,6.70
2019-03-03T13:52:31.856Z,7.17
2019-03-03T13:53:38.577Z,6.27
2019-03-03T13:54:45.681Z,6.10
2019-03-03T13:55:52.850Z,5.50
2019-03-03T13:57:00.170Z,5.50
2019-03-03T13:58:07.312Z,5.53
2019-03-03T13:59:14.024Z,6.63
2019-03-03T14:00:22.663Z,5.83
2019-03-03T14:01:29.544Z,6.20
2019-03-03T14:02:36.646Z,5.63
2019-03-03T14:03:43.635Z,6.57
2019-03-03T14:04:50.804Z,6.50
2019-03-03T14:05:57.480Z,6.00
2019-03-03T14:07:04.181Z,5.37
2019-03-03T14:08:11.703Z,5.53
2019-03-03T14:09:18.622Z,5.90
2019-03-03T14:10:25.632Z,6.57
2019-03-03T14:11:32.889Z,6.53
2019-03-03T14:12:39.968Z,5.50
2019-03-03T14:13:46.862Z,5.77
2019-03-03T14:14:53.550Z,5.63
2019-03-03T14:16:00.626Z,5.27
2019-03-03T14:17:08.284Z,5.50
2019-03-03T14:18:15.374Z,6.93
2019-03-03T14:19:22.247Z,7.57
2019-03-03T14:20:29.199Z,6.20
2019-03-03T14:21:35.948Z,5.27
2019-03-03T14:22:42.625Z,5.80
2019-03-03T14:23:49.559Z,5.90
2019-03-03T14:24:57.199Z,5.23
2019-03-03T14:26:04.060Z,5.53
2019-03-03T14:27:10.966Z,5.70
2019-03-03T14:28:18.200Z,5.73
2019-03-03T14:29:25.056Z,5.80
2019-03-03T14:30:32.171Z,4.97
2019-03-03T14:31:38.835Z,5.53
2019-03-03T14:32:45.895Z,5.87
2019-03-03T14:33:52.663Z,6.20
2019-03-03T14:34:59.667Z,6.20
2019-03-03T14:36:06.846Z,6.13
2019-03-03T14:37:13.513Z,5.77
2019-03-03T14:38:20.547Z,6.60
2019-03-03T14:39:27.749Z,6.73
2019-03-03T14:40:35.242Z,5.10
2019-03-03T14:41:42.702Z,5.87
2019-03-03T14:42:49.698Z,5.53
2019-03-03T14:43:56.858Z,5.20
2019-03-03T14:45:03.582Z,5.03
2019-03-03T14:46:10.334Z,5.23
2019-03-03T14:47:17.707Z,5.73
2019-03-03T14:48:24.427Z,6.23
2019-03-03T14:49:31.458Z,5.00
2019-03-03T14:50:38.205Z,4.70
2019-03-03T14:51:48.288Z,4.80
2019-03-03T14:52:55.349Z,5.17
2019-03-03T14:54:02.457Z,5.83
2019-03-03T14:55:12.416Z,5.87
2019-03-03T14:56:19.160Z,6.10
2019-03-03T14:57:25.910Z,4.83
2019-03-03T14:58:32.669Z,5.13
2019-03-03T14:59:39.339Z,5.67
2019-03-03T15:00:46.419Z,5.40
2019-03-03T15:01:55.173Z,5.30
2019-03-03T15:03:06.606Z,5.67
2019-03-03T15:04:13.716Z,4.80
2019-03-03T15:05:21.140Z,5.87
2019-03-03T15:06:27.931Z,5.50
2019-03-03T15:07:35.225Z,5.73
2019-03-03T15:08:42.037Z,5.47
2019-03-03T15:09:49.115Z,5.60
2019-03-03T15:10:56.599Z,5.57
2019-03-03T15:12:03.806Z,6.43
2019-03-03T15:13:10.966Z,6.17
2019-03-03T15:14:18.022Z,6.87
2019-03-03T15:15:25.213Z,6.60
2019-03-03T15:16:32.692Z,7.53
2019-03-03T15:17:39.752Z,7.13
2019-03-03T15:18:46.488Z,7.87
2019-03-03T15:19:53.175Z,6.60
2019-03-03T15:20:59.997Z,7.80
2019-03-03T15:22:07.368Z,8.90
2019-03-03T15:23:14.265Z,7.20
2019-03-03T15:24:21.548Z,8.43
2019-03-03T15:25:28.902Z,7.63
2019-03-03T15:26:35.642Z,8.17
2019-03-03T15:27:42.591Z,8.27
2019-03-03T15:28:49.380Z,8.20
2019-03-03T15:29:56.062Z,8.83
2019-03-03T15:31:03.194Z,8.90
2019-03-03T15:32:09.917Z,9.00
2019-03-03T15:33:16.866Z,9.17
2019-03-03T15:34:23.764Z,8.80
2019-03-03T15:35:30.493Z,9.47
2019-03-03T15:36:37.205Z,9.70
2019-03-03T15:37:44.229Z,9.57
2019-03-03T15:38:51.389Z,10.23
2019-03-03T15:39:58.322Z,9.47
2019-03-03T15:41:05.021Z,8.53
2019-03-03T15:42:11.715Z,9.10
2019-03-03T15:43:18.710Z,8.93
2019-03-03T15:44:25.764Z,10.50
2019-03-03T15:45:33.673Z,10.70
2019-03-03T15:46:40.360Z,10.00
2019-03-03T15:47:47.116Z,10.20
2019-03-03T15:48:54.156Z,8.63
2019-03-03T15:50:01.195Z,10.40
2019-03-03T15:51:08.407Z,10.73
2019-03-03T15:52:15.190Z,11.43
2019-03-03T15:53:22.491Z,10.10
2019-03-03T15:54:29.158Z,10.10
2019-03-03T15:55:36.545Z,9.20
2019-03-03T15:56:43.914Z,8.47
2019-03-03T15:57:50.835Z,8.90
2019-03-03T15:58:57.697Z,10.53
2019-03-03T16:00:06.294Z,9.60
2019-03-03T16:01:16.978Z,9.43
2019-03-03T16:02:23.665Z,8.60
2019-03-03T16:03:30.650Z,10.27
2019-03-03T16:04:37.669Z,11.10
2019-03-03T16:05:44.368Z,9.30
2019-03-03T16:06:51.066Z,9.50
2019-03-03T16:08:00.342Z,9.73
2019-03-03T16:09:11.294Z,9.83
2019-03-03T16:10:18.464Z,8.97
2019-03-03T16:11:25.338Z,8.93
2019-03-03T16:12:32.146Z,9.70
2019-03-03T16:13:38.901Z,8.37
2019-03-03T16:14:45.969Z,9.83
2019-03-03T16:15:52.694Z,9.70
2019-03-03T16:16:59.477Z,10.07
2019-03-03T16:18:06.490Z,8.70
2019-03-03T16:19:13.502Z,11.20
2019-03-03T16:20:21.440Z,9.33
2019-03-03T16:21:28.212Z,8.93
2019-03-03T16:22:35.228Z,10.17
2019-03-03T16:23:42.154Z,9.30
2019-03-03T16:24:49.151Z,9.80
2019-03-03T16:25:56.266Z,9.43
2019-03-03T16:27:02.955Z,9.63
2019-03-03T16:28:09.650Z,10.50
2019-03-03T16:29:16.507Z,8.43
2019-03-03T16:30:23.752Z,8.77
2019-03-03T16:31:30.434Z,8.73
2019-03-03T16:32:37.469Z,9.70
2019-03-03T16:33:44.182Z,9.70
2019-03-03T16:34:50.859Z,9.33
2019-03-03T16:35:57.904Z,9.20
2019-03-03T16:37:04.969Z,8.90
2019-03-03T16:38:12.010Z,10.67
2019-03-03T16:39:18.764Z,9.60